createdAt,value
2023-03-02T00:00:16.304Z,12.83
2023-03-02T00:02:45.506Z,10.60
2023-03-02T00:05:14.663Z,12.33
2023-03-02T00:07:43.746Z,12.37
2023-03-02T00:10:13.333Z,10.50
2023-03-02T00:12:43.432Z,13.23
2023-03-02T00:15:12.586Z,10.03
2023-03-02T00:17:41.331Z,11.07
2023-03-02T00:20:12.944Z,12.47
2023-03-02T00:22:44.540Z,11.00
2023-03-02T00:25:17.039Z,10.70
2023-03-02T00:27:47.126Z,12.73
2023-03-02T00:30:17.126Z,11.80
2023-03-02T00:32:45.849Z,11.63
2023-03-02T00:35:14.489Z,12.53
2023-03-02T00:37:43.382Z,12.87
2023-03-02T00:40:12.961Z,11.93
2023-03-02T00:42:41.484Z,11.70
2023-03-02T00:45:12.411Z,10.90
2023-03-02T00:47:42.501Z,12.80
2023-03-02T00:50:12.202Z,12.33
2023-03-02T00:52:40.858Z,11.00
2023-03-02T00:55:10.267Z,12.13
2023-03-02T00:57:38.845Z,12.30
2023-03-02T01:00:10.155Z,11.47
2023-03-02T01:02:44.460Z,12.10
2023-03-02T01:05:17.781Z,12.50
2023-03-02T01:07:46.640Z,12.53
2023-03-02T01:10:15.783Z,11.97
2023-03-02T01:12:44.637Z,12.20
2023-03-02T01:15:13.909Z,11.27
2023-03-02T01:17:44.056Z,11.57
2023-03-02T01:20:14.121Z,13.13
2023-03-02T01:22:44.744Z,11.37
2023-03-02T01:25:14.560Z,12.43
2023-03-02T01:27:44.484Z,11.77
2023-03-02T01:30:15.060Z,12.50
2023-03-02T01:32:44.975Z,11.27
2023-03-02T01:35:13.893Z,11.43
2023-03-02T01:37:42.878Z,12.40
2023-03-02T01:40:15.456Z,10.60
2023-03-02T01:42:53.440Z,12.93
2023-03-02T01:45:53.311Z,11.40
2023-03-02T01:48:36.108Z,11.60
2023-03-02T01:51:07.881Z,11.60
2023-03-02T01:53:38.750Z,10.97
2023-03-02T01:56:08.478Z,12.33
2023-03-02T01:58:38.564Z,12.30
2023-03-02T02:01:15.302Z,12.33
2023-03-02T02:03:49.126Z,11.77
2023-03-02T02:06:25.436Z,10.90
2023-03-02T02:08:57.469Z,12.17
2023-03-02T02:11:26.450Z,11.93
2023-03-02T02:13:59.981Z,12.83
2023-03-02T02:16:32.819Z,12.40
2023-03-02T02:19:04.970Z,12.73
2023-03-02T02:21:33.557Z,12.70
2023-03-02T02:24:11.034Z,12.33
2023-03-02T02:26:47.710Z,13.10
2023-03-02T02:29:23.023Z,12.40
2023-03-02T02:31:59.077Z,12.30
2023-03-02T02:34:35.656Z,15.20
2023-03-02T02:37:15.168Z,12.03
2023-03-02T02:39:48.959Z,12.50
2023-03-02T02:42:26.377Z,12.83
2023-03-02T02:44:59.343Z,12.13
2023-03-02T02:47:30.106Z,12.50
2023-03-02T02:50:00.115Z,12.37
2023-03-02T02:52:30.645Z,12.73
2023-03-02T02:55:00.112Z,12.70
2023-03-02T02:57:32.351Z,12.27
2023-03-02T03:00:03.398Z,11.30
2023-03-02T03:02:41.021Z,11.70
2023-03-02T03:05:15.549Z,11.50
2023-03-02T03:07:44.646Z,11.80
2023-03-02T03:10:22.200Z,13.23
2023-03-02T03:12:53.547Z,12.93
2023-03-02T03:15:24.521Z,12.53
2023-03-02T03:17:56.871Z,12.33
2023-03-02T03:20:29.246Z,12.53
2023-03-02T03:22:59.772Z,12.27
2023-03-02T03:25:32.096Z,11.97
2023-03-02T03:28:03.972Z,13.23
2023-03-02T03:30:33.487Z,13.10
2023-03-02T03:33:02.186Z,13.97
2023-03-02T03:35:30.813Z,14.27
2023-03-02T03:37:59.713Z,14.67
2023-03-02T03:40:29.047Z,12.77
2023-03-02T03:42:57.993Z,14.70
2023-03-02T03:45:30.339Z,12.60
2023-03-02T03:47:59.274Z,13.57
2023-03-02T03:50:28.133Z,13.07
2023-03-02T03:52:56.896Z,13.20
2023-03-02T03:55:30.135Z,12.93
2023-03-02T03:57:58.978Z,14.63
2023-03-02T04:00:29.244Z,12.80
2023-03-02T04:03:03.958Z,14.37
2023-03-02T04:05:35.266Z,13.30
2023-03-02T04:08:05.524Z,15.73
2023-03-02T04:10:35.097Z,13.00
2023-03-02T04:13:05.126Z,14.50
2023-03-02T04:15:36.560Z,14.47
2023-03-02T04:18:05.429Z,12.80
2023-03-02T04:20:36.465Z,14.37
2023-03-02T04:23:05.051Z,14.53
2023-03-02T04:25:33.715Z,12.40
2023-03-02T04:28:08.324Z,14.90
2023-03-02T04:30:41.180Z,14.70
2023-03-02T04:33:10.114Z,13.97
2023-03-02T04:35:39.202Z,12.50
2023-03-02T04:38:07.877Z,14.77
2023-03-02T04:40:36.575Z,13.53
2023-03-02T04:43:05.125Z,13.00
2023-03-02T04:45:34.007Z,13.93
2023-03-02T04:48:03.885Z,13.87
2023-03-02T04:50:32.832Z,14.27
2023-03-02T04:53:01.384Z,13.57
2023-03-02T04:55:30.214Z,13.03
2023-03-02T04:57:58.791Z,13.13
2023-03-02T05:00:28.867Z,14.47
2023-03-02T05:02:58.271Z,13.57
2023-03-02T05:05:29.655Z,13.30
2023-03-02T05:07:59.357Z,14.20
2023-03-02T05:10:30.051Z,12.90
2023-03-02T05:13:04.962Z,14.23
2023-03-02T05:15:38.508Z,13.83
2023-03-02T05:18:10.796Z,15.43
2023-03-02T05:20:41.269Z,15.20
2023-03-02T05:23:12.752Z,14.77
2023-03-02T05:25:41.246Z,13.63
2023-03-02T05:28:10.247Z,14.90
2023-03-02T05:30:38.840Z,14.37
2023-03-02T05:33:07.575Z,13.37
2023-03-02T05:35:36.299Z,15.23
2023-03-02T05:38:06.726Z,13.30
2023-03-02T05:40:36.489Z,14.47
2023-03-02T05:43:05.524Z,14.83
2023-03-02T05:45:37.726Z,16.10
2023-03-02T05:48:08.080Z,13.17
2023-03-02T05:50:36.779Z,15.30
2023-03-02T05:53:07.534Z,14.87
2023-03-02T05:55:37.159Z,15.93
2023-03-02T05:58:09.012Z,16.17
2023-03-02T06:00:37.739Z,15.60
2023-03-02T06:03:06.832Z,14.20
2023-03-02T06:05:36.426Z,13.90
2023-03-02T06:08:08.707Z,15.07
2023-03-02T06:10:38.041Z,14.60
2023-03-02T06:13:06.759Z,15.70
2023-03-02T06:15:35.455Z,15.20
2023-03-02T06:18:04.369Z,14.00
2023-03-02T06:20:33.001Z,14.37
2023-03-02T06:23:01.614Z,15.50
2023-03-02T06:25:32.128Z,15.27
2023-03-02T06:28:00.776Z,15.80
2023-03-02T06:30:29.367Z,14.10
2023-03-02T06:32:59.858Z,16.20
2023-03-02T06:35:30.220Z,14.83
2023-03-02T06:38:01.244Z,14.60
2023-03-02T06:40:31.705Z,16.63
2023-03-02T06:43:03.864Z,16.00
2023-03-02T06:45:34.698Z,16.77
2023-03-02T06:48:04.471Z,16.20
2023-03-02T06:50:33.384Z,15.30
2023-03-02T06:53:02.292Z,14.50
2023-03-02T06:55:32.324Z,14.10
2023-03-02T06:58:00.920Z,15.27
2023-03-02T07:00:29.652Z,17.60
2023-03-02T07:02:58.306Z,15.97
2023-03-02T07:05:27.206Z,15.57
2023-03-02T07:07:56.037Z,14.80
2023-03-02T07:10:24.661Z,14.07
2023-03-02T07:12:55.027Z,16.57
2023-03-02T07:15:23.486Z,16.60
2023-03-02T07:17:52.344Z,16.37
2023-03-02T07:20:21.668Z,14.53
2023-03-02T07:22:50.467Z,15.33
2023-03-02T07:25:19.247Z,14.87
2023-03-02T07:27:47.984Z,15.60
2023-03-02T07:30:22.625Z,15.67
2023-03-02T07:32:51.498Z,15.30
2023-03-02T07:35:20.795Z,16.60
2023-03-02T07:37:49.481Z,15.43
2023-03-02T07:40:18.391Z,16.20
2023-03-02T07:42:47.085Z,16.57
2023-03-02T07:45:20.282Z,15.23
2023-03-02T07:47:49.156Z,16.00
2023-03-02T07:50:18.061Z,15.70
2023-03-02T07:52:46.656Z,13.77
2023-03-02T07:55:15.385Z,15.10
2023-03-02T07:57:44.193Z,13.37
2023-03-02T08:00:14.329Z,15.97
2023-03-02T08:02:44.946Z,16.30
2023-03-02T08:05:15.715Z,14.27
2023-03-02T08:07:44.458Z,17.37
2023-03-02T08:10:13.920Z,14.43
2023-03-02T08:12:44.141Z,15.83
2023-03-02T08:15:13.392Z,16.37
2023-03-02T08:17:43.668Z,15.87
2023-03-02T08:20:13.472Z,15.03
2023-03-02T08:22:41.989Z,15.63
2023-03-02T08:25:10.846Z,14.93
2023-03-02T08:27:40.328Z,15.60
2023-03-02T08:30:12.551Z,15.00
2023-03-02T08:32:43.020Z,15.10
2023-03-02T08:35:12.910Z,17.97
2023-03-02T08:37:41.503Z,16.63
2023-03-02T08:40:12.088Z,15.97
2023-03-02T08:42:40.721Z,16.20
2023-03-02T08:45:11.046Z,15.20
2023-03-02T08:47:39.779Z,16.33
2023-03-02T08:50:12.094Z,16.50
2023-03-02T08:52:40.544Z,15.53
2023-03-02T08:55:11.639Z,15.50
2023-03-02T08:57:41.680Z,15.20
2023-03-02T09:00:14.797Z,16.07
2023-03-02T09:02:43.526Z,14.27
2023-03-02T09:05:13.589Z,15.40
2023-03-02T09:07:42.131Z,15.53
2023-03-02T09:10:12.150Z,13.67
2023-03-02T09:12:40.743Z,15.00
2023-03-02T09:15:10.076Z,16.57
2023-03-02T09:17:38.714Z,15.50
2023-03-02T09:20:09.501Z,16.23
2023-03-02T09:22:39.558Z,16.27
2023-03-02T09:25:09.364Z,15.60
2023-03-02T09:27:37.894Z,14.23
2023-03-02T09:30:08.667Z,15.50
2023-03-02T09:32:37.468Z,17.67
2023-03-02T09:35:07.551Z,14.97
2023-03-02T09:37:38.705Z,15.77
2023-03-02T09:40:20.799Z,15.87
2023-03-02T09:43:38.205Z,14.77
2023-03-02T09:46:19.243Z,15.40
2023-03-02T09:49:14.597Z,14.60
2023-03-02T09:51:54.925Z,14.40
2023-03-02T09:54:25.674Z,14.70
2023-03-02T09:57:00.110Z,14.60
2023-03-02T09:59:34.136Z,16.37
2023-03-02T10:02:18.461Z,14.00
2023-03-02T10:04:53.070Z,15.80
2023-03-02T10:07:28.671Z,15.50
2023-03-02T10:10:03.936Z,14.27
2023-03-02T10:12:55.077Z,15.30
2023-03-02T10:15:32.326Z,14.03
2023-03-02T10:18:13.991Z,14.97
2023-03-02T10:20:53.037Z,14.37
2023-03-02T10:23:43.594Z,15.27
2023-03-02T10:26:39.723Z,15.00
2023-03-02T10:29:48.436Z,15.03
2023-03-02T10:32:24.255Z,15.27
2023-03-02T10:34:54.766Z,15.00
2023-03-02T10:37:26.635Z,15.57
2023-03-02T10:39:56.128Z,15.20
2023-03-02T10:42:32.025Z,16.53
2023-03-02T10:45:26.604Z,15.63
2023-03-02T10:48:02.549Z,15.50
2023-03-02T10:50:31.677Z,14.80
2023-03-02T10:53:02.928Z,16.23
2023-03-02T10:55:35.614Z,14.67
2023-03-02T10:58:07.723Z,13.70
2023-03-02T11:00:37.923Z,14.63
2023-03-02T11:03:23.628Z,14.40
2023-03-02T11:05:52.284Z,12.73
2023-03-02T11:08:24.004Z,13.97
2023-03-02T11:10:59.752Z,14.03
2023-03-02T11:13:33.443Z,15.07
2023-03-02T11:16:05.877Z,15.70
2023-03-02T11:18:39.697Z,15.10
2023-03-02T11:21:15.205Z,13.97
2023-03-02T11:23:58.961Z,14.17
2023-03-02T11:26:33.460Z,14.43
2023-03-02T11:29:12.787Z,15.60
2023-03-02T11:31:49.316Z,15.30
2023-03-02T11:34:41.632Z,14.07
2023-03-02T11:37:22.050Z,14.50
2023-03-02T11:40:20.533Z,15.30
2023-03-02T11:42:49.954Z,14.07
2023-03-02T11:45:24.455Z,15.40
2023-03-02T11:48:04.145Z,14.67
2023-03-02T11:50:38.072Z,13.63
2023-03-02T11:53:13.820Z,17.33
2023-03-02T11:55:48.520Z,15.77
2023-03-02T11:58:21.834Z,14.40
2023-03-02T12:00:53.437Z,15.37
2023-03-02T12:03:39.034Z,15.80
2023-03-02T12:06:26.542Z,14.27
2023-03-02T12:09:08.682Z,14.73
2023-03-02T12:11:41.198Z,15.30
2023-03-02T12:14:29.928Z,15.67
2023-03-02T12:17:22.219Z,15.00
2023-03-02T12:19:55.605Z,15.73
2023-03-02T12:22:32.380Z,15.57
2023-03-02T12:25:07.026Z,15.90
2023-03-02T12:27:39.874Z,16.17
2023-03-02T12:30:26.661Z,14.90
2023-03-02T12:33:17.642Z,13.77
2023-03-02T12:35:56.291Z,14.90
2023-03-02T12:38:31.883Z,13.37
2023-03-02T12:41:31.205Z,16.20
2023-03-02T12:44:43.859Z,14.53
2023-03-02T12:47:27.175Z,15.93
2023-03-02T12:50:00.257Z,14.80
2023-03-02T12:52:33.700Z,15.40
2023-03-02T12:55:07.522Z,13.97
2023-03-02T12:57:47.733Z,13.60
2023-03-02T13:00:21.105Z,14.00
2023-03-02T13:02:52.417Z,14.37
2023-03-02T13:05:24.558Z,14.43
2023-03-02T13:08:02.536Z,15.20
2023-03-02T13:10:37.122Z,16.00
2023-03-02T13:13:18.932Z,14.43
2023-03-02T13:15:54.490Z,14.77
2023-03-02T13:18:25.817Z,12.13
2023-03-02T13:20:55.701Z,13.70
2023-03-02T13:23:28.402Z,12.10
2023-03-02T13:25:59.802Z,12.67
2023-03-02T13:28:31.440Z,13.27
2023-03-02T13:31:03.963Z,12.00
2023-03-02T13:33:35.493Z,11.20
2023-03-02T13:36:05.073Z,13.50
2023-03-02T13:38:38.742Z,12.60
2023-03-02T13:41:08.915Z,12.67
2023-03-02T13:43:40.550Z,12.30
2023-03-02T13:46:29.840Z,13.00
2023-03-02T13:49:09.835Z,11.80
2023-03-02T13:51:43.157Z,11.53
2023-03-02T13:54:22.449Z,11.20
2023-03-02T13:56:53.555Z,11.33
2023-03-02T13:59:24.317Z,11.77
2023-03-02T14:01:58.940Z,11.20
2023-03-02T14:04:27.799Z,12.17
2023-03-02T14:06:56.520Z,11.93
2023-03-02T14:09:27.712Z,13.13
2023-03-02T14:11:57.898Z,12.20
2023-03-02T14:14:31.138Z,11.70
2023-03-02T14:16:59.794Z,9.83
2023-03-02T14:19:28.395Z,9.80
2023-03-02T14:21:57.032Z,10.17
2023-03-02T14:24:27.227Z,10.47
2023-03-02T14:26:55.985Z,10.37
2023-03-02T14:29:28.323Z,10.80
2023-03-02T14:32:00.197Z,8.90
2023-03-02T14:34:28.943Z,10.90
2023-03-02T14:37:03.419Z,11.00
2023-03-02T14:39:37.966Z,10.40
2023-03-02T14:42:13.893Z,10.40
2023-03-02T14:44:43.682Z,9.80
2023-03-02T14:47:12.676Z,10.77
2023-03-02T14:49:41.691Z,9.10
2023-03-02T14:52:18.464Z,10.43
2023-03-02T14:54:55.056Z,10.73
2023-03-02T14:57:27.089Z,10.90
2023-03-02T14:59:59.828Z,10.27
2023-03-02T15:02:29.034Z,11.23
2023-03-02T15:04:58.143Z,8.73
2023-03-02T15:07:28.657Z,10.00
2023-03-02T15:09:59.230Z,10.73
2023-03-02T15:12:28.055Z,9.70
2023-03-02T15:14:56.638Z,8.30
2023-03-02T15:17:25.387Z,10.40
2023-03-02T15:19:54.514Z,9.93
2023-03-02T15:22:23.008Z,9.60
2023-03-02T15:24:52.172Z,11.27
2023-03-02T15:27:24.886Z,9.57
2023-03-02T15:29:55.789Z,10.03
2023-03-02T15:32:25.504Z,10.00
2023-03-02T15:34:54.364Z,10.50
2023-03-02T15:37:23.300Z,9.00
2023-03-02T15:39:55.844Z,9.43
2023-03-02T15:42:26.227Z,9.67
2023-03-02T15:44:55.093Z,9.67
2023-03-02T15:47:24.191Z,10.17
2023-03-02T15:49:52.887Z,9.77
2023-03-02T15:52:21.638Z,9.87
2023-03-02T15:54:50.461Z,10.13
2023-03-02T15:57:19.276Z,8.63
2023-03-02T15:59:49.263Z,9.97
2023-03-02T16:02:17.929Z,9.30
2023-03-02T16:04:46.665Z,9.83
2023-03-02T16:07:15.392Z,10.00
2023-03-02T16:09:45.330Z,12.93
2023-03-02T16:12:14.101Z,9.50
2023-03-02T16:14:42.820Z,10.10
2023-03-02T16:17:13.001Z,8.53
2023-03-02T16:19:41.753Z,10.67
2023-03-02T16:22:10.296Z,9.23
2023-03-02T16:24:40.872Z,8.90
2023-03-02T16:27:10.430Z,10.00
2023-03-02T16:29:39.017Z,9.90
2023-03-02T16:32:09.030Z,10.17
2023-03-02T16:34:40.137Z,9.87
2023-03-02T16:37:08.628Z,10.23
2023-03-02T16:39:37.294Z,9.33
2023-03-02T16:42:06.323Z,10.40
2023-03-02T16:44:34.993Z,9.20
2023-03-02T16:47:03.525Z,10.57
2023-03-02T16:49:32.057Z,12.03
2023-03-02T16:52:03.099Z,11.87
2023-03-02T16:54:32.648Z,11.60
2023-03-02T16:57:02.107Z,11.57
2023-03-02T16:59:30.813Z,9.40
2023-03-02T17:01:59.559Z,10.83
2023-03-02T17:04:28.590Z,10.20
2023-03-02T17:07:01.310Z,10.77
2023-03-02T17:09:35.561Z,10.20
2023-03-02T17:12:04.996Z,8.70
2023-03-02T17:14:33.535Z,10.30
2023-03-02T17:17:05.058Z,9.90
2023-03-02T17:19:34.116Z,8.73
2023-03-02T17:22:04.565Z,9.87
2023-03-02T17:24:35.633Z,10.37
2023-03-02T17:27:06.815Z,9.13
2023-03-02T17:29:39.192Z,9.80
2023-03-02T17:32:07.881Z,8.90
2023-03-02T17:34:36.469Z,10.80
2023-03-02T17:37:05.045Z,10.33
2023-03-02T17:39:36.179Z,12.80
2023-03-02T17:42:05.070Z,11.90
2023-03-02T17:44:34.784Z,11.20
2023-03-02T17:47:05.340Z,11.30
2023-03-02T17:49:34.228Z,12.27
2023-03-02T17:52:02.809Z,11.70
2023-03-02T17:54:31.446Z,9.90
2023-03-02T17:57:01.474Z,10.67
2023-03-02T17:59:30.497Z,12.60
2023-03-02T18:01:59.160Z,11.40
2023-03-02T18:04:28.013Z,10.07
2023-03-02T18:06:56.779Z,11.10
2023-03-02T18:09:25.378Z,12.63
2023-03-02T18:11:54.075Z,12.90
2023-03-02T18:14:28.374Z,10.33
2023-03-02T18:16:57.056Z,9.33
2023-03-02T18:19:25.715Z,11.47
2023-03-02T18:21:54.307Z,9.40
2023-03-02T18:24:23.135Z,16.10
2023-03-02T18:26:51.704Z,11.30
2023-03-02T18:29:20.931Z,10.20
2023-03-02T18:31:51.193Z,9.83
2023-03-02T18:34:20.214Z,9.47
2023-03-02T18:36:48.958Z,10.40
2023-03-02T18:39:17.538Z,9.13
2023-03-02T18:41:46.108Z,9.80
2023-03-02T18:44:14.993Z,9.20
2023-03-02T18:46:44.233Z,10.10
2023-03-02T18:49:14.597Z,10.87
2023-03-02T18:51:43.315Z,9.10
2023-03-02T18:54:12.190Z,10.30
2023-03-02T18:56:40.752Z,11.57
2023-03-02T18:59:11.144Z,10.77
2023-03-02T19:01:40.123Z,10.50
2023-03-02T19:04:09.025Z,14.73
2023-03-02T19:06:39.000Z,11.80
2023-03-02T19:09:07.765Z,11.40
2023-03-02T19:11:37.097Z,9.90
2023-03-02T19:14:05.848Z,10.07
2023-03-02T19:16:35.868Z,9.87
2023-03-02T19:19:04.558Z,9.80
2023-03-02T19:21:33.310Z,10.30
2023-03-02T19:24:03.254Z,9.40
2023-03-02T19:26:32.073Z,9.90
2023-03-02T19:29:00.921Z,10.03
2023-03-02T19:31:30.453Z,11.10
2023-03-02T19:33:59.136Z,10.43
2023-03-02T19:36:27.753Z,11.00
2023-03-02T19:38:56.531Z,9.90
2023-03-02T19:41:26.839Z,9.50
2023-03-02T19:43:55.748Z,10.43
2023-03-02T19:46:24.351Z,11.57
2023-03-02T19:48:53.260Z,12.03
2023-03-02T19:51:21.768Z,11.07
2023-03-02T19:53:50.735Z,10.57
2023-03-02T19:56:21.970Z,11.20
2023-03-02T19:58:54.153Z,9.10
2023-03-02T20:01:24.991Z,11.20
2023-03-02T20:03:55.919Z,12.43
2023-03-02T20:06:30.493Z,11.23
2023-03-02T20:09:02.485Z,10.00
2023-03-02T20:11:31.763Z,11.30
2023-03-02T20:14:02.911Z,11.73
2023-03-02T20:16:33.749Z,11.30
2023-03-02T20:19:03.964Z,12.60
2023-03-02T20:21:34.346Z,12.00
2023-03-02T20:24:02.941Z,11.23
2023-03-02T20:26:32.017Z,14.27
2023-03-02T20:29:05.742Z,16.00
2023-03-02T20:31:36.213Z,14.00
2023-03-02T20:34:10.751Z,14.87
2023-03-02T20:36:39.896Z,12.63
2023-03-02T20:39:14.206Z,12.77
2023-03-02T20:41:43.175Z,12.17
2023-03-02T20:44:14.851Z,13.60
2023-03-02T20:46:48.517Z,11.87
2023-03-02T20:49:17.649Z,13.30
2023-03-02T20:51:52.885Z,17.03
2023-03-02T20:54:24.045Z,13.20
2023-03-02T20:56:54.220Z,13.23
2023-03-02T20:59:25.495Z,13.70
2023-03-02T21:01:55.089Z,14.40
2023-03-02T21:04:24.128Z,14.90
2023-03-02T21:06:53.487Z,14.87
2023-03-02T21:09:22.528Z,14.17
2023-03-02T21:11:51.366Z,14.10
2023-03-02T21:14:20.311Z,14.63
2023-03-02T21:16:50.737Z,15.47
2023-03-02T21:19:20.210Z,15.53
2023-03-02T21:21:48.891Z,15.87
2023-03-02T21:24:18.064Z,15.57
2023-03-02T21:26:48.779Z,15.33
2023-03-02T21:29:20.897Z,17.50
2023-03-02T21:31:51.938Z,15.67
2023-03-02T21:34:21.820Z,17.10
2023-03-02T21:36:53.607Z,16.03
2023-03-02T21:39:24.019Z,15.73
2023-03-02T21:41:54.062Z,19.37
2023-03-02T21:44:22.777Z,16.20
2023-03-02T21:46:52.815Z,17.63
2023-03-02T21:49:23.990Z,16.67
2023-03-02T21:51:52.690Z,15.63
2023-03-02T21:54:21.440Z,15.97
2023-03-02T21:56:50.357Z,16.00
2023-03-02T21:59:19.095Z,15.93
2023-03-02T22:01:48.193Z,17.93
2023-03-02T22:04:18.397Z,17.17
2023-03-02T22:06:47.132Z,15.03
2023-03-02T22:09:15.723Z,17.37
2023-03-02T22:11:45.861Z,15.73
2023-03-02T22:14:18.026Z,17.10
2023-03-02T22:16:48.338Z,17.57
2023-03-02T22:19:27.652Z,17.80
2023-03-02T22:21:57.922Z,16.10
2023-03-02T22:24:29.963Z,18.67
2023-03-02T22:27:22.984Z,18.63
2023-03-02T22:29:54.602Z,17.50
2023-03-02T22:32:29.346Z,17.47
2023-03-02T22:35:02.679Z,17.33
2023-03-02T22:37:35.662Z,17.60
2023-03-02T22:40:25.542Z,17.83
2023-03-02T22:43:08.322Z,18.30
2023-03-02T22:45:37.105Z,18.13
2023-03-02T22:48:15.683Z,17.33
2023-03-02T22:50:48.044Z,17.97
2023-03-02T22:53:28.045Z,20.67
2023-03-02T22:56:00.252Z,17.70
2023-03-02T22:58:45.817Z,18.60
2023-03-02T23:01:24.221Z,19.40
2023-03-02T23:03:55.266Z,17.07
2023-03-02T23:06:34.016Z,18.50
2023-03-02T23:09:07.227Z,16.97
2023-03-02T23:11:39.947Z,19.03
2023-03-02T23:14:23.791Z,20.27
2023-03-02T23:17:00.441Z,18.37
2023-03-02T23:19:31.678Z,18.97
2023-03-02T23:22:01.666Z,19.03
2023-03-02T23:24:30.525Z,19.13
2023-03-02T23:26:58.984Z,20.53
2023-03-02T23:29:27.532Z,18.37
2023-03-02T23:31:56.477Z,19.43
2023-03-02T23:34:25.779Z,19.37
2023-03-02T23:36:54.391Z,18.63
2023-03-02T23:39:24.485Z,17.47
2023-03-02T23:41:53.386Z,17.43
2023-03-02T23:44:22.222Z,19.53
2023-03-02T23:46:50.886Z,19.10
2023-03-02T23:49:20.066Z,18.60
2023-03-02T23:51:48.647Z,19.03
2023-03-02T23:54:17.458Z,19.87
2023-03-02T23:56:47.419Z,18.73
2023-03-02T23:59:15.990Z,18.60
